createdAt,value
2022-10-11T00:00:25.157Z,12.13
2022-10-11T00:02:52.059Z,11.98
2022-10-11T00:05:18.584Z,12.05
2022-10-11T00:07:45.838Z,12.47
2022-10-11T00:10:12.277Z,12.33
2022-10-11T00:12:38.811Z,12.23
2022-10-11T00:15:06.369Z,11.83
2022-10-11T00:17:33.056Z,11.73
2022-10-11T00:19:59.647Z,12.13
2022-10-11T00:22:26.486Z,11.47
2022-10-11T00:24:53.135Z,13.43
2022-10-11T00:27:19.860Z,13.50
2022-10-11T00:29:46.402Z,13.17
2022-10-11T00:32:12.929Z,13.45
2022-10-11T00:34:39.863Z,13.13
2022-10-11T00:37:06.351Z,13.60
2022-10-11T00:39:33.930Z,13.57
2022-10-11T00:42:00.505Z,13.47
2022-10-11T00:44:27.414Z,13.63
2022-10-11T00:47:03.093Z,13.20
2022-10-11T00:49:29.550Z,11.98
2022-10-11T00:51:57.310Z,12.10
2022-10-11T00:54:25.838Z,11.18
2022-10-11T00:56:54.601Z,11.17
2022-10-11T00:59:23.049Z,10.32
2022-10-11T01:01:49.694Z,10.73
2022-10-11T01:04:16.252Z,11.03
2022-10-11T01:06:42.722Z,10.48
2022-10-11T01:09:09.393Z,9.40
2022-10-11T01:11:36.033Z,9.63
2022-10-11T01:14:11.686Z,9.20
2022-10-11T01:16:41.183Z,8.93
2022-10-11T01:19:20.026Z,7.82
2022-10-11T01:21:48.849Z,7.27
2022-10-11T01:24:24.519Z,8.10
2022-10-11T01:26:51.023Z,6.18
2022-10-11T01:29:17.546Z,5.77
2022-10-11T01:31:49.212Z,5.65
2022-10-11T01:34:19.125Z,5.43
2022-10-11T01:36:48.210Z,5.93
2022-10-11T01:39:36.561Z,4.88
2022-10-11T01:42:03.533Z,4.70
2022-10-11T01:44:30.002Z,4.50
2022-10-11T01:46:56.569Z,4.78
2022-10-11T01:49:23.067Z,4.40
2022-10-11T01:51:51.058Z,3.80
2022-10-11T01:54:17.577Z,4.05
2022-10-11T01:57:02.950Z,3.30
2022-10-11T01:59:55.813Z,3.88
2022-10-11T02:02:32.187Z,4.10
2022-10-11T02:05:03.755Z,3.33
2022-10-11T02:07:36.530Z,3.08
2022-10-11T02:10:06.166Z,3.38
2022-10-11T02:12:34.303Z,3.25
2022-10-11T02:15:01.440Z,2.70
2022-10-11T02:17:30.951Z,2.35
2022-10-11T02:19:57.534Z,2.58
2022-10-11T02:22:28.328Z,2.72
2022-10-11T02:24:55.892Z,2.63
2022-10-11T02:27:23.030Z,2.78
2022-10-11T02:29:49.709Z,2.47
2022-10-11T02:32:16.709Z,2.90
2022-10-11T02:34:50.207Z,2.47
2022-10-11T02:37:25.957Z,2.50
2022-10-11T02:39:53.999Z,2.92
2022-10-11T02:42:40.120Z,2.60
2022-10-11T02:45:11.491Z,2.85
2022-10-11T02:47:37.951Z,2.90
2022-10-11T02:50:04.750Z,3.00
2022-10-11T02:52:31.248Z,2.75
2022-10-11T02:54:57.863Z,3.28
2022-10-11T02:57:24.349Z,2.47
2022-10-11T02:59:50.987Z,2.78
2022-10-11T03:02:17.515Z,2.90
2022-10-11T03:04:44.064Z,2.63
2022-10-11T03:07:12.949Z,2.57
2022-10-11T03:09:39.539Z,2.92
2022-10-11T03:12:06.135Z,2.78
2022-10-11T03:14:32.677Z,3.60
2022-10-11T03:17:12.302Z,3.20
2022-10-11T03:19:47.717Z,3.05
2022-10-11T03:22:14.221Z,3.42
2022-10-11T03:24:40.750Z,3.83
2022-10-11T03:27:07.360Z,3.00
2022-10-11T03:29:34.005Z,3.40
2022-10-11T03:32:00.509Z,3.63
2022-10-11T03:34:27.150Z,3.55
2022-10-11T03:36:53.691Z,3.25
2022-10-11T03:39:20.275Z,3.40
2022-10-11T03:41:46.766Z,3.92
2022-10-11T03:44:13.233Z,3.13
2022-10-11T03:46:39.907Z,3.38
2022-10-11T03:49:06.363Z,3.72
2022-10-11T03:51:32.893Z,3.75
2022-10-11T03:53:59.412Z,3.67
2022-10-11T03:56:25.872Z,3.90
2022-10-11T03:58:52.333Z,3.92
2022-10-11T04:01:18.985Z,3.65
2022-10-11T04:03:45.516Z,3.63
2022-10-11T04:06:12.146Z,3.55
2022-10-11T04:08:38.852Z,3.22
2022-10-11T04:11:05.402Z,3.55
2022-10-11T04:13:31.890Z,3.35
2022-10-11T04:15:58.373Z,3.53
2022-10-11T04:18:24.944Z,3.65
2022-10-11T04:20:51.471Z,3.10
2022-10-11T04:23:17.964Z,3.33
2022-10-11T04:25:45.580Z,3.80
2022-10-11T04:28:12.285Z,3.80
2022-10-11T04:30:38.849Z,4.07
2022-10-11T04:33:05.360Z,4.20
2022-10-11T04:35:32.369Z,3.90
2022-10-11T04:37:58.813Z,3.80
2022-10-11T04:40:25.311Z,3.90
2022-10-11T04:42:53.772Z,4.40
2022-10-11T04:45:21.102Z,4.63
2022-10-11T04:47:48.181Z,6.07
2022-10-11T04:50:14.917Z,6.45
2022-10-11T04:52:41.578Z,5.65
2022-10-11T04:55:08.406Z,5.57
2022-10-11T04:57:36.050Z,5.82
2022-10-11T05:00:03.167Z,5.40
2022-10-11T05:02:29.814Z,5.82
2022-10-11T05:04:56.960Z,5.50
2022-10-11T05:07:23.515Z,6.72
2022-10-11T05:09:50.040Z,6.43
2022-10-11T05:12:17.003Z,7.18
2022-10-11T05:14:43.612Z,6.20
2022-10-11T05:17:10.166Z,6.20
2022-10-11T05:19:36.680Z,5.55
2022-10-11T05:22:03.146Z,5.88
2022-10-11T05:24:29.628Z,5.20
2022-10-11T05:26:59.746Z,5.53
2022-10-11T05:29:28.958Z,7.70
2022-10-11T05:31:55.548Z,6.38
2022-10-11T05:34:22.475Z,6.72
2022-10-11T05:36:49.048Z,6.88
2022-10-11T05:39:15.943Z,5.43
2022-10-11T05:41:42.440Z,7.38
2022-10-11T05:44:09.270Z,7.03
2022-10-11T05:46:35.779Z,7.43
2022-10-11T05:49:02.315Z,6.90
2022-10-11T05:51:28.825Z,6.88
2022-10-11T05:53:55.916Z,6.60
2022-10-11T05:56:23.351Z,6.43
2022-10-11T05:58:51.657Z,7.55
2022-10-11T06:01:24.861Z,6.20
2022-10-11T06:03:51.537Z,6.15
2022-10-11T06:06:18.275Z,6.07
2022-10-11T06:08:44.861Z,6.38
2022-10-11T06:11:12.265Z,5.90
2022-10-11T06:13:38.907Z,5.82
2022-10-11T06:16:05.938Z,6.60
2022-10-11T06:18:32.701Z,6.13
2022-10-11T06:20:59.487Z,6.95
2022-10-11T06:23:26.153Z,6.93
2022-10-11T06:25:56.424Z,7.45
2022-10-11T06:28:23.290Z,8.13
2022-10-11T06:30:50.329Z,8.90
2022-10-11T06:33:16.821Z,8.10
2022-10-11T06:35:43.310Z,8.82
2022-10-11T06:38:09.823Z,7.75
2022-10-11T06:40:37.605Z,8.55
2022-10-11T06:43:04.204Z,8.82
2022-10-11T06:45:30.703Z,7.93
2022-10-11T06:47:57.206Z,8.30
2022-10-11T06:50:41.028Z,7.75
2022-10-11T06:53:10.360Z,7.63
2022-10-11T06:55:37.468Z,9.68
2022-10-11T06:58:03.980Z,8.57
2022-10-11T07:00:31.002Z,9.40
2022-10-11T07:02:57.485Z,11.00
2022-10-11T07:05:23.938Z,10.95
2022-10-11T07:07:50.503Z,10.13
2022-10-11T07:10:17.286Z,9.13
2022-10-11T07:12:44.857Z,8.90
2022-10-11T07:15:11.526Z,8.63
2022-10-11T07:17:38.107Z,7.97
2022-10-11T07:20:05.490Z,7.35
2022-10-11T07:22:31.953Z,7.32
2022-10-11T07:24:58.435Z,7.55
2022-10-11T07:27:24.883Z,7.55
2022-10-11T07:29:51.763Z,9.60
2022-10-11T07:32:18.290Z,9.27
2022-10-11T07:34:44.836Z,7.85
2022-10-11T07:37:11.417Z,8.70
2022-10-11T07:39:37.912Z,9.43
2022-10-11T07:42:04.595Z,9.90
2022-10-11T07:44:31.217Z,11.07
2022-10-11T07:46:57.697Z,12.23
2022-10-11T07:49:24.461Z,11.60
2022-10-11T07:51:50.975Z,12.45
2022-10-11T07:54:17.600Z,12.50
2022-10-11T07:56:44.086Z,11.05
2022-10-11T07:59:10.595Z,10.63
2022-10-11T08:01:37.186Z,10.43
2022-10-11T08:04:03.797Z,10.82
2022-10-11T08:06:32.638Z,11.50
2022-10-11T08:09:00.100Z,10.98
2022-10-11T08:11:27.997Z,10.50
2022-10-11T08:13:54.670Z,11.00
2022-10-11T08:16:21.374Z,7.82
2022-10-11T08:18:47.867Z,9.15
2022-10-11T08:21:15.303Z,8.38
2022-10-11T08:23:42.356Z,7.97
2022-10-11T08:26:09.745Z,7.90
2022-10-11T08:28:36.442Z,7.43
2022-10-11T08:31:03.019Z,9.10
2022-10-11T08:33:29.646Z,10.20
2022-10-11T08:35:57.515Z,10.95
2022-10-11T08:38:24.098Z,10.55
2022-10-11T08:40:52.785Z,11.27
2022-10-11T08:43:30.200Z,12.98
2022-10-11T08:45:57.381Z,14.27
2022-10-11T08:48:27.471Z,16.65
2022-10-11T08:50:54.038Z,17.98
2022-10-11T08:53:23.645Z,11.73
2022-10-11T08:55:51.115Z,14.43
2022-10-11T08:58:18.856Z,13.88
2022-10-11T09:00:45.666Z,12.80
2022-10-11T09:03:31.671Z,13.43
2022-10-11T09:06:03.842Z,12.60
2022-10-11T09:08:39.771Z,11.38
2022-10-11T09:11:09.377Z,12.02
2022-10-11T09:13:54.857Z,10.57
2022-10-11T09:16:27.307Z,11.18
2022-10-11T09:19:12.667Z,10.05
2022-10-11T09:21:46.340Z,11.07
2022-10-11T09:24:31.387Z,10.23
2022-10-11T09:27:01.657Z,9.23
2022-10-11T09:29:46.241Z,10.77
2022-10-11T09:32:16.721Z,11.82
2022-10-11T09:34:43.288Z,9.80
2022-10-11T09:37:28.621Z,10.07
2022-10-11T09:40:17.210Z,9.68
2022-10-11T09:42:43.671Z,10.45
2022-10-11T09:45:14.396Z,9.27
2022-10-11T09:47:40.842Z,8.55
2022-10-11T09:50:14.042Z,7.70
2022-10-11T09:52:50.514Z,8.23
2022-10-11T09:55:36.891Z,7.72
2022-10-11T09:58:04.741Z,7.97
2022-10-11T10:00:33.858Z,5.80
2022-10-11T10:03:01.561Z,7.30
2022-10-11T10:05:28.916Z,9.13
2022-10-11T10:08:10.719Z,8.60
2022-10-11T10:10:40.331Z,8.30
2022-10-11T10:13:16.125Z,8.20
2022-10-11T10:15:44.793Z,7.82
2022-10-11T10:18:14.421Z,6.90
2022-10-11T10:20:40.962Z,7.25
2022-10-11T10:23:09.587Z,6.70
2022-10-11T10:25:43.033Z,8.25
2022-10-11T10:28:36.651Z,6.78
2022-10-11T10:31:03.696Z,7.82
2022-10-11T10:33:31.264Z,7.47
2022-10-11T10:36:02.661Z,6.68
2022-10-11T10:38:31.718Z,7.95
2022-10-11T10:40:58.915Z,7.78
2022-10-11T10:43:26.533Z,6.65
2022-10-11T10:46:11.408Z,5.63
2022-10-11T10:49:23.308Z,5.90
2022-10-11T10:51:39.488Z,6.00
2022-10-11T10:54:06.016Z,6.10
2022-10-11T10:56:38.240Z,6.45
2022-10-11T10:59:07.749Z,5.72
2022-10-11T11:01:34.551Z,7.03
2022-10-11T11:04:07.225Z,6.15
2022-10-11T11:06:36.741Z,5.68
2022-10-11T11:09:22.488Z,6.47
2022-10-11T11:12:01.278Z,5.95
2022-10-11T11:14:38.664Z,5.65
2022-10-11T11:17:07.067Z,5.97
2022-10-11T11:19:37.570Z,6.28
2022-10-11T11:22:07.173Z,5.25
2022-10-11T11:24:43.636Z,4.70
2022-10-11T11:27:10.161Z,4.45
2022-10-11T11:29:45.761Z,4.63
2022-10-11T11:32:21.488Z,4.10
2022-10-11T11:34:50.144Z,4.68
2022-10-11T11:37:19.564Z,5.10
2022-10-11T11:39:48.200Z,5.53
2022-10-11T11:42:30.789Z,5.97
2022-10-11T11:44:57.451Z,4.80
2022-10-11T11:47:25.278Z,4.68
2022-10-11T11:49:59.534Z,4.75
2022-10-11T11:55:35.282Z,5.22
2022-10-11T11:58:20.761Z,5.32
2022-10-11T12:11:11.550Z,3.80
2022-10-11T12:13:42.537Z,4.03
2022-10-11T12:17:47.206Z,4.20
2022-10-11T12:22:46.566Z,3.60
2022-10-11T12:25:18.486Z,2.97
2022-10-11T12:31:45.893Z,3.78
2022-10-11T12:34:19.973Z,2.30
2022-10-11T12:36:47.435Z,1.77
2022-10-11T12:39:21.608Z,2.55
2022-10-11T12:42:05.759Z,3.40
2022-10-11T12:44:32.414Z,3.08
2022-10-11T12:47:18.721Z,2.88
2022-10-11T12:50:06.644Z,2.33
2022-10-11T12:52:52.002Z,1.73
2022-10-11T12:55:23.020Z,1.73
2022-10-11T12:58:08.896Z,1.80
2022-10-11T13:00:43.593Z,1.55
2022-10-11T13:03:32.585Z,1.40
2022-10-11T13:06:01.856Z,1.88
2022-10-11T13:08:31.019Z,1.73
2022-10-11T13:10:59.431Z,1.65
2022-10-11T13:13:27.872Z,1.77
2022-10-11T13:15:54.680Z,1.65
2022-10-11T13:18:22.113Z,1.45
2022-10-11T13:20:48.777Z,1.70
2022-10-11T13:23:20.268Z,1.67
2022-10-11T13:25:46.866Z,1.48
2022-10-11T13:28:13.960Z,1.73
2022-10-11T13:30:42.598Z,1.70
2022-10-11T13:33:11.482Z,1.10
2022-10-11T13:35:38.202Z,1.27
2022-10-11T13:38:05.671Z,1.48
2022-10-11T13:40:32.218Z,1.67
2022-10-11T13:42:58.662Z,2.00
2022-10-11T13:45:25.861Z,1.75
2022-10-11T13:47:52.941Z,1.58
2022-10-11T13:50:24.290Z,1.58
2022-10-11T13:53:10.089Z,2.30
2022-10-11T13:55:36.995Z,1.58
2022-10-11T13:58:09.189Z,1.40
2022-10-11T14:00:39.125Z,1.63
2022-10-11T14:03:07.984Z,1.30
2022-10-11T14:05:35.743Z,1.30
2022-10-11T14:08:21.574Z,1.40
2022-10-11T14:10:54.155Z,1.45
2022-10-11T14:13:25.518Z,1.25
2022-10-11T14:16:02.027Z,1.20
2022-10-11T14:18:47.769Z,1.55
2022-10-11T14:21:26.224Z,1.50
2022-10-11T14:23:53.395Z,1.35
2022-10-11T14:26:20.104Z,2.03
2022-10-11T14:28:49.507Z,1.50
2022-10-11T14:31:15.988Z,2.53
2022-10-11T14:33:43.097Z,2.53
2022-10-11T14:36:09.634Z,2.50
2022-10-11T14:38:36.094Z,1.52
2022-10-11T14:41:03.449Z,1.40
2022-10-11T14:43:29.926Z,1.63
2022-10-11T14:45:56.396Z,1.30
2022-10-11T14:48:42.984Z,1.20
2022-10-11T14:51:11.958Z,1.10
2022-10-11T14:53:49.352Z,1.33
2022-10-11T14:56:21.139Z,1.20
2022-10-11T14:58:48.463Z,1.27
2022-10-11T15:01:18.864Z,1.13
2022-10-11T15:03:45.673Z,1.10
2022-10-11T15:06:23.071Z,1.10
2022-10-11T15:08:49.646Z,1.45
2022-10-11T15:11:17.175Z,1.40
2022-10-11T15:13:44.196Z,1.52
2022-10-11T15:16:11.438Z,1.20
2022-10-11T15:18:39.173Z,1.40
2022-10-11T15:21:06.113Z,1.45
2022-10-11T15:23:32.662Z,1.50
2022-10-11T15:25:59.626Z,1.42
2022-10-11T15:28:36.207Z,1.33
2022-10-11T15:31:07.307Z,1.20
2022-10-11T15:33:34.062Z,1.83
2022-10-11T15:36:07.126Z,1.42
2022-10-11T15:38:34.263Z,1.58
2022-10-11T15:41:13.391Z,1.55
2022-10-11T15:43:49.174Z,1.40
2022-10-11T15:46:29.018Z,1.30
2022-10-11T15:48:57.760Z,1.40
2022-10-11T15:51:25.906Z,1.52
2022-10-11T15:53:52.653Z,1.73
2022-10-11T15:56:24.318Z,1.65
2022-10-11T15:58:57.970Z,1.50
2022-10-11T16:01:24.598Z,1.67
2022-10-11T16:03:51.240Z,2.05
2022-10-11T16:06:18.153Z,1.85
2022-10-11T16:08:44.673Z,2.20
2022-10-11T16:11:11.559Z,2.42
2022-10-11T16:13:38.079Z,4.57
2022-10-11T16:16:05.539Z,2.40
2022-10-11T16:18:35.398Z,7.57
2022-10-11T16:21:05.164Z,28.08
2022-10-11T16:23:31.821Z,21.33
2022-10-11T16:25:59.015Z,17.92
2022-10-11T16:28:25.871Z,13.68
2022-10-11T16:30:52.586Z,14.75
2022-10-11T16:33:19.008Z,15.02
2022-10-11T16:35:45.513Z,15.70
2022-10-11T16:38:15.025Z,9.73
2022-10-11T16:40:41.693Z,10.70
2022-10-11T16:43:08.281Z,9.75
2022-10-11T16:45:35.663Z,11.75
2022-10-11T16:48:02.197Z,11.95
2022-10-11T16:50:34.440Z,9.73
2022-10-11T16:53:05.013Z,10.25
2022-10-11T16:55:31.937Z,10.55
2022-10-11T16:57:58.774Z,14.13
2022-10-11T17:00:25.307Z,17.17
2022-10-11T17:02:52.106Z,17.15
2022-10-11T17:05:18.654Z,19.23
2022-10-11T17:07:45.207Z,17.17
2022-10-11T17:10:11.688Z,14.85
2022-10-11T17:12:38.909Z,17.17
2022-10-11T17:15:06.149Z,19.67
2022-10-11T17:17:32.777Z,21.27
2022-10-11T17:19:59.395Z,22.77
2022-10-11T17:22:26.269Z,23.90
2022-10-11T17:24:52.810Z,24.35
2022-10-11T17:27:19.406Z,24.15
2022-10-11T17:29:46.059Z,29.90
2022-10-11T17:32:12.679Z,28.63
2022-10-11T17:34:39.114Z,27.73
2022-10-11T17:37:06.400Z,25.67
2022-10-11T17:39:32.985Z,26.70
2022-10-11T17:42:05.083Z,26.00
2022-10-11T17:44:31.581Z,23.77
2022-10-11T17:47:00.069Z,22.35
2022-10-11T17:49:26.565Z,24.48
2022-10-11T17:51:53.352Z,23.27
2022-10-11T17:54:21.954Z,22.05
2022-10-11T17:56:48.641Z,19.73
2022-10-11T17:59:16.560Z,19.52
2022-10-11T18:01:44.269Z,19.25
2022-10-11T18:04:17.034Z,20.10
2022-10-11T18:06:45.243Z,17.83
2022-10-11T18:09:12.303Z,17.13
2022-10-11T18:11:40.307Z,16.40
2022-10-11T18:14:07.295Z,19.17
2022-10-11T18:16:34.571Z,18.90
2022-10-11T18:19:02.051Z,17.70
2022-10-11T18:21:33.983Z,18.40
2022-10-11T18:24:05.972Z,17.80
2022-10-11T18:26:33.503Z,17.88
2022-10-11T18:29:00.425Z,17.05
2022-10-11T18:31:28.243Z,17.37
2022-10-11T18:33:55.279Z,19.53
2022-10-11T18:36:24.483Z,19.70
2022-10-11T18:39:10.087Z,20.37
2022-10-11T18:41:42.107Z,20.00
2022-10-11T18:44:09.882Z,20.80
2022-10-11T18:46:38.543Z,20.33
2022-10-11T18:49:06.355Z,19.87
2022-10-11T18:51:35.629Z,20.27
2022-10-11T18:54:02.791Z,18.77
2022-10-11T18:56:29.711Z,19.30
2022-10-11T18:58:56.767Z,20.47
2022-10-11T19:01:27.689Z,19.80
2022-10-11T19:03:56.786Z,20.87
2022-10-11T19:06:24.971Z,19.70
2022-10-11T19:08:55.635Z,18.63
2022-10-11T19:11:23.063Z,19.37
2022-10-11T19:13:55.321Z,19.33
2022-10-11T19:16:22.503Z,18.23
2022-10-11T19:18:52.730Z,17.87
2022-10-11T19:21:19.534Z,19.30
2022-10-11T19:23:46.956Z,19.73
2022-10-11T19:26:17.624Z,20.27
2022-10-11T19:28:44.850Z,19.57
2022-10-11T19:31:13.117Z,20.17
2022-10-11T19:33:40.093Z,20.43
2022-10-11T19:36:07.277Z,20.60
2022-10-11T19:38:34.624Z,20.57
2022-10-11T19:41:02.369Z,19.00
2022-10-11T19:43:29.526Z,19.73
2022-10-11T19:46:02.830Z,20.70
2022-10-11T19:48:32.159Z,19.17
2022-10-11T19:51:17.490Z,19.20
2022-10-11T19:53:44.790Z,20.47
2022-10-11T19:56:15.114Z,21.30
2022-10-11T19:58:42.008Z,23.70
2022-10-11T20:01:13.468Z,21.87
2022-10-11T20:03:40.093Z,23.03
2022-10-11T20:06:06.986Z,24.57
2022-10-11T20:08:33.680Z,25.70
2022-10-11T20:11:04.796Z,27.30
2022-10-11T20:13:34.840Z,24.10
2022-10-11T20:16:12.280Z,22.57
2022-10-11T20:18:38.915Z,22.23
2022-10-11T20:21:06.585Z,23.07
2022-10-11T20:23:33.605Z,21.43
2022-10-11T20:26:00.957Z,24.27
2022-10-11T20:28:29.854Z,24.20
2022-10-11T20:30:56.823Z,24.60
2022-10-11T20:33:23.510Z,24.97
2022-10-11T20:36:03.307Z,24.57
2022-10-11T20:38:31.031Z,23.13
2022-10-11T20:40:57.667Z,23.67
2022-10-11T20:43:24.466Z,23.60
2022-10-11T20:46:01.072Z,24.37
2022-10-11T20:48:27.927Z,33.33
2022-10-11T20:50:54.600Z,50.23
2022-10-11T20:53:21.499Z,48.93
2022-10-11T20:55:48.366Z,44.13
2022-10-11T20:58:15.738Z,38.17
2022-10-11T21:00:42.549Z,36.90
2022-10-11T21:03:09.801Z,33.63
2022-10-11T21:05:36.573Z,34.07
2022-10-11T21:08:03.746Z,36.80
2022-10-11T21:10:31.054Z,32.93
2022-10-11T21:12:57.832Z,31.97
2022-10-11T21:15:24.656Z,34.30
2022-10-11T21:17:51.619Z,35.63
2022-10-11T21:20:18.289Z,31.87
2022-10-11T21:22:44.764Z,27.53
2022-10-11T21:25:11.183Z,27.63
2022-10-11T21:27:37.687Z,25.83
2022-10-11T21:30:04.333Z,27.07
2022-10-11T21:32:30.857Z,27.97
2022-10-11T21:34:57.358Z,25.73
2022-10-11T21:37:23.877Z,26.63
2022-10-11T21:39:50.353Z,25.00
2022-10-11T21:42:17.006Z,24.10
2022-10-11T21:44:43.869Z,22.77
2022-10-11T21:47:10.426Z,20.80
2022-10-11T21:49:37.068Z,21.60
2022-10-11T21:52:03.705Z,22.30
2022-10-11T21:54:30.466Z,18.73
2022-10-11T21:56:57.072Z,16.50
2022-10-11T21:59:23.632Z,15.23
2022-10-11T22:01:50.187Z,16.57
2022-10-11T22:04:16.772Z,13.67
2022-10-11T22:06:43.289Z,13.87
2022-10-11T22:09:09.807Z,16.07
2022-10-11T22:11:36.815Z,15.17
2022-10-11T22:14:03.579Z,15.17
2022-10-11T22:16:30.098Z,14.37
2022-10-11T22:18:56.784Z,14.87
2022-10-11T22:21:23.413Z,15.03
2022-10-11T22:23:50.567Z,14.30
2022-10-11T22:26:18.135Z,14.13
2022-10-11T22:28:46.692Z,12.03
2022-10-11T22:31:13.463Z,12.03
2022-10-11T22:33:40.124Z,11.03
2022-10-11T22:36:10.186Z,10.43
2022-10-11T22:38:36.865Z,10.83
2022-10-11T22:41:03.344Z,10.57
2022-10-11T22:43:29.816Z,10.90
2022-10-11T22:45:56.231Z,9.73
2022-10-11T22:48:22.788Z,10.07
2022-10-11T22:50:49.285Z,11.63
2022-10-11T22:53:15.794Z,9.77
2022-10-11T22:55:42.236Z,10.10
2022-10-11T22:58:08.963Z,11.23
2022-10-11T23:00:35.650Z,10.83
2022-10-11T23:03:02.074Z,11.73
2022-10-11T23:05:28.564Z,11.07
2022-10-11T23:07:55.134Z,11.10
2022-10-11T23:10:21.618Z,11.10
2022-10-11T23:12:48.068Z,9.47
2022-10-11T23:15:15.451Z,10.47
2022-10-11T23:17:42.359Z,9.07
2022-10-11T23:20:09.094Z,8.80
2022-10-11T23:22:35.636Z,9.03
2022-10-11T23:25:02.105Z,10.33
2022-10-11T23:27:29.322Z,10.50
2022-10-11T23:29:55.807Z,9.87
2022-10-11T23:32:22.400Z,10.53
2022-10-11T23:34:48.857Z,12.00
2022-10-11T23:37:15.293Z,11.40
2022-10-11T23:39:41.811Z,11.10
2022-10-11T23:42:08.330Z,10.30
2022-10-11T23:44:34.873Z,13.70
2022-10-11T23:47:01.313Z,14.80
2022-10-11T23:49:27.760Z,14.37
2022-10-11T23:51:54.230Z,13.17
2022-10-11T23:54:20.703Z,12.23
2022-10-11T23:56:47.545Z,11.93
2022-10-11T23:59:13.988Z,12.77
